createdAt,value
2022-10-02T00:00:09.607Z,19.00
2022-10-02T00:02:25.107Z,19.00
2022-10-02T00:04:35.674Z,19.00
2022-10-02T00:06:45.216Z,19.10
2022-10-02T00:08:53.616Z,19.00
2022-10-02T00:11:02.833Z,19.00
2022-10-02T00:13:12.141Z,18.90
2022-10-02T00:15:27.565Z,18.90
2022-10-02T00:17:37.540Z,18.90
2022-10-02T00:19:42.649Z,18.80
2022-10-02T00:21:58.349Z,18.80
2022-10-02T00:24:05.806Z,18.80
2022-10-02T00:26:16.547Z,18.80
2022-10-02T00:28:30.097Z,18.80
2022-10-02T00:30:44.555Z,18.70
2022-10-02T00:33:03.916Z,18.70
2022-10-02T00:35:46.019Z,18.80
2022-10-02T00:37:58.798Z,18.80
2022-10-02T00:40:26.437Z,18.80
2022-10-02T00:42:59.491Z,18.80
2022-10-02T00:45:50.070Z,18.80
2022-10-02T00:48:04.404Z,18.80
2022-10-02T00:50:24.461Z,18.70
2022-10-02T00:52:47.975Z,18.70
2022-10-02T00:55:09.956Z,18.70
2022-10-02T00:57:23.917Z,18.80
2022-10-02T00:59:51.935Z,18.80
2022-10-02T01:02:02.454Z,18.80
2022-10-02T01:04:12.910Z,18.70
2022-10-02T01:06:17.514Z,18.80
2022-10-02T01:08:23.732Z,18.70
2022-10-02T01:10:29.342Z,18.80
2022-10-02T01:12:33.965Z,18.80
2022-10-02T01:14:40.977Z,18.70
2022-10-02T01:16:46.364Z,18.80
2022-10-02T01:18:51.962Z,18.80
2022-10-02T01:21:03.228Z,18.70
2022-10-02T01:23:18.495Z,18.70
2022-10-02T01:25:25.274Z,18.70
2022-10-02T01:27:29.990Z,18.70
2022-10-02T01:29:34.551Z,18.70
2022-10-02T01:31:39.818Z,18.70
2022-10-02T01:33:48.481Z,18.70
2022-10-02T01:35:53.289Z,18.60
2022-10-02T01:37:58.132Z,18.70
2022-10-02T01:40:10.567Z,18.60
2022-10-02T01:42:17.362Z,18.60
2022-10-02T01:44:22.822Z,18.70
2022-10-02T01:46:36.138Z,18.70
2022-10-02T01:48:48.182Z,18.70
2022-10-02T01:51:05.614Z,18.80
2022-10-02T01:53:17.113Z,18.70
2022-10-02T01:55:37.092Z,18.70
2022-10-02T01:57:58.561Z,18.60
2022-10-02T02:00:09.940Z,18.60
2022-10-02T02:02:25.273Z,18.60
2022-10-02T02:04:36.026Z,18.70
2022-10-02T02:06:48.212Z,18.70
2022-10-02T02:09:03.881Z,18.70
2022-10-02T02:11:14.238Z,18.80
2022-10-02T02:13:24.891Z,18.70
2022-10-02T02:15:59.129Z,18.80
2022-10-02T02:18:09.654Z,18.80
2022-10-02T02:20:19.923Z,18.80
2022-10-02T02:22:28.945Z,18.80
2022-10-02T02:24:40.270Z,18.80
2022-10-02T02:26:47.608Z,18.90
2022-10-02T02:28:58.262Z,18.90
2022-10-02T02:31:05.256Z,18.90
2022-10-02T02:33:14.379Z,18.90
2022-10-02T02:35:23.914Z,18.90
2022-10-02T02:37:32.824Z,18.90
2022-10-02T02:39:42.569Z,18.90
2022-10-02T02:41:51.513Z,18.90
2022-10-02T02:44:02.938Z,19.00
2022-10-02T02:46:11.009Z,19.00
2022-10-02T02:48:22.480Z,19.00
2022-10-02T02:50:31.340Z,19.00
2022-10-02T02:52:41.782Z,19.00
2022-10-02T02:54:49.850Z,19.00
2022-10-02T02:56:55.919Z,18.90
2022-10-02T02:59:06.726Z,18.90
2022-10-02T03:01:11.404Z,18.80
2022-10-02T03:03:16.217Z,18.90
2022-10-02T03:05:21.986Z,18.80
2022-10-02T03:07:26.895Z,18.80
2022-10-02T03:10:16.024Z,18.80
2022-10-02T03:12:47.078Z,18.70
2022-10-02T03:15:16.404Z,18.60
2022-10-02T03:17:32.835Z,18.70
2022-10-02T03:19:45.624Z,18.60
2022-10-02T03:21:58.080Z,18.60
2022-10-02T03:24:08.138Z,18.60
2022-10-02T03:26:18.458Z,18.50
2022-10-02T03:28:53.941Z,18.50
2022-10-02T03:30:59.373Z,18.40
2022-10-02T03:33:05.584Z,18.40
2022-10-02T03:35:13.475Z,18.30
2022-10-02T03:37:20.245Z,18.20
2022-10-02T03:39:26.173Z,18.20
2022-10-02T03:41:30.983Z,18.20
2022-10-02T03:43:35.560Z,18.10
2022-10-02T03:45:51.103Z,18.10
2022-10-02T03:47:58.059Z,18.10
2022-10-02T03:50:02.772Z,18.00
2022-10-02T03:52:15.100Z,18.00
2022-10-02T03:54:23.558Z,17.90
2022-10-02T03:56:38.452Z,17.90
2022-10-02T03:58:48.166Z,17.90
2022-10-02T04:00:58.714Z,17.90
2022-10-02T04:03:11.478Z,17.90
2022-10-02T04:05:24.482Z,17.90
2022-10-02T04:07:34.915Z,17.90
2022-10-02T04:09:45.022Z,17.80
2022-10-02T04:11:56.035Z,17.70
2022-10-02T04:14:06.800Z,17.80
2022-10-02T04:16:17.037Z,17.80
2022-10-02T04:18:26.799Z,17.70
2022-10-02T04:20:38.365Z,17.70
2022-10-02T04:22:48.179Z,17.70
2022-10-02T04:25:01.369Z,17.60
2022-10-02T04:27:15.719Z,17.50
2022-10-02T04:29:25.253Z,17.50
2022-10-02T04:31:30.742Z,17.60
2022-10-02T04:33:38.492Z,17.60
2022-10-02T04:35:53.218Z,17.60
2022-10-02T04:38:18.469Z,17.50
2022-10-02T04:40:36.765Z,17.50
2022-10-02T04:42:54.987Z,17.50
2022-10-02T04:45:15.607Z,17.50
2022-10-02T04:47:34.671Z,17.50
2022-10-02T04:49:59.844Z,17.70
2022-10-02T04:52:25.836Z,18.10
2022-10-02T04:54:49.466Z,18.70
2022-10-02T04:57:04.678Z,19.10
2022-10-02T04:59:27.428Z,19.10
2022-10-02T05:01:47.731Z,19.30
2022-10-02T05:04:26.994Z,19.80
2022-10-02T05:06:46.915Z,20.20
2022-10-02T05:09:29.612Z,20.20
2022-10-02T05:12:11.802Z,20.80
2022-10-02T05:14:52.664Z,21.00
2022-10-02T05:17:58.029Z,20.90
2022-10-02T05:20:22.924Z,21.40
2022-10-02T05:22:58.555Z,21.30
2022-10-02T05:25:32.354Z,21.30
2022-10-02T05:28:00.437Z,20.60
2022-10-02T05:30:10.623Z,20.50
2022-10-02T05:32:31.164Z,20.60
2022-10-02T05:34:57.954Z,20.70
2022-10-02T05:37:24.359Z,21.00
2022-10-02T05:39:35.344Z,20.90
2022-10-02T05:41:47.056Z,21.20
2022-10-02T05:44:00.032Z,21.00
2022-10-02T05:46:11.317Z,20.90
2022-10-02T05:48:20.537Z,20.70
2022-10-02T05:50:33.321Z,21.10
2022-10-02T05:52:47.257Z,21.30
2022-10-02T05:55:03.750Z,21.30
2022-10-02T05:57:17.018Z,21.50
2022-10-02T05:59:27.937Z,21.50
2022-10-02T06:01:37.345Z,21.60
2022-10-02T06:03:46.299Z,21.70
2022-10-02T06:05:56.633Z,22.20
2022-10-02T06:08:04.259Z,22.80
2022-10-02T06:10:15.158Z,23.20
2022-10-02T06:12:26.821Z,23.10
2022-10-02T06:14:35.928Z,23.50
2022-10-02T06:16:45.861Z,23.30
2022-10-02T06:18:55.770Z,23.30
2022-10-02T06:21:02.808Z,23.00
2022-10-02T06:23:14.338Z,22.80
2022-10-02T06:25:25.712Z,23.20
2022-10-02T06:27:34.528Z,23.20
2022-10-02T06:29:43.909Z,23.50
2022-10-02T06:31:54.933Z,23.60
2022-10-02T06:33:59.689Z,23.90
2022-10-02T06:36:31.302Z,23.70
2022-10-02T06:38:49.730Z,23.40
2022-10-02T06:41:03.677Z,23.30
2022-10-02T06:43:21.358Z,23.40
2022-10-02T06:45:37.063Z,23.40
2022-10-02T06:47:58.737Z,23.20
2022-10-02T06:50:21.450Z,23.10
2022-10-02T06:52:38.722Z,22.90
2022-10-02T06:55:02.422Z,22.80
2022-10-02T06:57:39.712Z,22.80
2022-10-02T06:59:59.179Z,23.10
2022-10-02T07:02:13.045Z,23.30
2022-10-02T07:04:44.995Z,23.40
2022-10-02T07:07:09.904Z,23.50
2022-10-02T07:09:49.393Z,23.90
2022-10-02T07:12:04.270Z,24.10
2022-10-02T07:14:25.919Z,24.10
2022-10-02T07:16:43.846Z,24.40
2022-10-02T07:19:07.137Z,24.90
2022-10-02T07:21:24.236Z,24.70
2022-10-02T07:23:52.097Z,24.60
2022-10-02T07:26:16.267Z,24.40
2022-10-02T07:28:29.449Z,24.00
2022-10-02T07:30:44.003Z,23.90
2022-10-02T07:32:52.940Z,24.10
2022-10-02T07:35:04.606Z,23.80
2022-10-02T07:37:21.148Z,23.70
2022-10-02T07:39:40.676Z,24.00
2022-10-02T07:42:13.847Z,24.20
2022-10-02T07:44:32.941Z,24.70
2022-10-02T07:46:49.882Z,24.40
2022-10-02T07:49:04.581Z,24.60
2022-10-02T07:51:50.134Z,24.80
2022-10-02T07:53:58.588Z,25.10
2022-10-02T07:56:03.682Z,25.10
2022-10-02T07:58:15.725Z,25.10
2022-10-02T08:00:24.244Z,24.90
2022-10-02T08:02:35.891Z,25.10
2022-10-02T08:04:40.478Z,25.00
2022-10-02T08:06:47.258Z,25.00
2022-10-02T08:08:54.780Z,25.20
2022-10-02T08:11:05.466Z,25.30
2022-10-02T08:13:20.674Z,25.30
2022-10-02T08:15:29.795Z,25.20
2022-10-02T08:17:41.200Z,25.30
2022-10-02T08:19:51.820Z,25.30
2022-10-02T08:22:02.415Z,25.20
2022-10-02T08:24:13.379Z,25.30
2022-10-02T08:26:23.189Z,25.40
2022-10-02T08:28:30.654Z,25.50
2022-10-02T08:30:35.391Z,25.60
2022-10-02T08:32:41.338Z,25.60
2022-10-02T08:34:45.929Z,25.50
2022-10-02T08:37:29.128Z,25.50
2022-10-02T08:39:51.859Z,25.50
2022-10-02T08:42:25.383Z,25.50
2022-10-02T08:45:02.481Z,25.70
2022-10-02T08:47:44.900Z,25.70
2022-10-02T08:50:32.565Z,25.90
2022-10-02T08:53:25.342Z,26.30
2022-10-02T08:55:50.800Z,26.50
2022-10-02T08:58:28.162Z,26.40
2022-10-02T09:00:37.721Z,26.50
2022-10-02T09:03:36.086Z,26.50
2022-10-02T09:06:27.597Z,26.60
2022-10-02T09:09:11.771Z,26.40
2022-10-02T09:12:06.615Z,26.30
2022-10-02T09:14:44.364Z,26.40
2022-10-02T09:17:12.876Z,26.50
2022-10-02T09:19:32.961Z,26.70
2022-10-02T09:21:56.146Z,26.70
2022-10-02T09:24:34.619Z,26.50
2022-10-02T09:27:03.322Z,26.50
2022-10-02T09:29:50.305Z,26.50
2022-10-02T09:32:26.991Z,26.80
2022-10-02T09:35:18.396Z,26.80
2022-10-02T09:38:05.655Z,27.20
2022-10-02T09:40:39.372Z,27.10
2022-10-02T09:43:19.466Z,27.10
2022-10-02T09:45:57.519Z,27.10
2022-10-02T09:48:45.367Z,27.30
2022-10-02T09:51:45.957Z,27.00
2022-10-02T09:54:35.163Z,26.60
2022-10-02T09:57:08.308Z,26.30
2022-10-02T09:59:41.820Z,26.50
2022-10-02T10:02:14.231Z,26.40
2022-10-02T10:05:04.905Z,26.20
2022-10-02T10:07:46.774Z,26.40
2022-10-02T10:10:28.328Z,26.10
2022-10-02T10:13:23.802Z,25.90
2022-10-02T10:16:11.567Z,26.10
2022-10-02T10:19:03.935Z,26.30
2022-10-02T10:21:39.298Z,26.30
2022-10-02T10:24:07.785Z,26.40
2022-10-02T10:26:45.731Z,26.40
2022-10-02T10:29:25.134Z,26.50
2022-10-02T10:32:14.096Z,26.30
2022-10-02T10:35:00.275Z,26.60
2022-10-02T10:37:25.173Z,26.70
2022-10-02T10:40:09.786Z,26.90
2022-10-02T10:43:07.500Z,26.90
2022-10-02T10:45:31.099Z,26.50
2022-10-02T10:48:14.473Z,26.30
2022-10-02T10:50:38.975Z,26.10
2022-10-02T10:53:23.068Z,26.10
2022-10-02T10:55:46.381Z,25.90
2022-10-02T10:58:10.403Z,26.10
2022-10-02T11:00:21.812Z,26.00
2022-10-02T11:02:56.265Z,26.20
2022-10-02T11:05:17.324Z,26.40
2022-10-02T11:07:42.292Z,26.20
2022-10-02T11:10:15.846Z,26.10
2022-10-02T11:12:50.114Z,25.90
2022-10-02T11:15:13.187Z,25.90
2022-10-02T11:17:46.703Z,25.40
2022-10-02T11:20:15.122Z,25.50
2022-10-02T11:22:51.914Z,25.50
2022-10-02T11:25:28.502Z,25.40
2022-10-02T11:28:08.996Z,25.20
2022-10-02T11:30:24.188Z,25.30
2022-10-02T11:33:04.092Z,25.20
2022-10-02T11:35:32.811Z,25.00
2022-10-02T11:38:09.443Z,25.00
2022-10-02T11:40:42.518Z,24.90
2022-10-02T11:43:24.902Z,24.90
2022-10-02T11:46:02.774Z,24.90
2022-10-02T11:48:35.362Z,25.00
2022-10-02T11:51:10.238Z,25.20
2022-10-02T11:53:53.687Z,25.10
2022-10-02T11:56:16.480Z,25.00
2022-10-02T11:58:44.204Z,25.10
2022-10-02T12:01:12.121Z,25.30
2022-10-02T12:03:23.226Z,25.40
2022-10-02T12:05:53.625Z,25.30
2022-10-02T12:08:05.676Z,25.40
2022-10-02T12:10:29.974Z,25.30
2022-10-02T12:12:51.748Z,25.30
2022-10-02T12:15:04.839Z,25.10
2022-10-02T12:17:25.289Z,25.20
2022-10-02T12:20:04.108Z,25.40
2022-10-02T12:22:42.758Z,25.60
2022-10-02T12:25:16.466Z,25.60
2022-10-02T12:27:32.744Z,25.60
2022-10-02T12:30:01.015Z,25.60
2022-10-02T12:32:15.766Z,25.40
2022-10-02T12:34:38.567Z,25.40
2022-10-02T12:36:56.685Z,25.60
2022-10-02T12:39:11.931Z,25.80
2022-10-02T12:41:34.581Z,25.80
2022-10-02T12:44:07.320Z,25.60
2022-10-02T12:46:33.739Z,25.60
2022-10-02T12:49:20.403Z,25.60
2022-10-02T12:51:40.718Z,25.30
2022-10-02T12:54:33.875Z,24.80
2022-10-02T12:57:08.433Z,24.60
2022-10-02T12:59:20.992Z,24.50
2022-10-02T13:01:57.703Z,24.30
2022-10-02T13:04:28.094Z,24.40
2022-10-02T13:07:06.255Z,24.20
2022-10-02T13:09:34.995Z,24.30
2022-10-02T13:11:55.730Z,24.50
2022-10-02T13:14:42.205Z,24.60
2022-10-02T13:17:09.774Z,24.80
2022-10-02T13:19:21.271Z,25.00
2022-10-02T13:21:32.217Z,25.00
2022-10-02T13:23:44.625Z,25.00
2022-10-02T13:26:02.768Z,25.00
2022-10-02T13:28:22.693Z,25.10
2022-10-02T13:30:33.904Z,25.10
2022-10-02T13:33:01.100Z,25.00
2022-10-02T13:35:22.211Z,25.10
2022-10-02T13:37:40.876Z,25.10
2022-10-02T13:40:01.315Z,24.90
2022-10-02T13:42:30.337Z,24.90
2022-10-02T13:44:47.166Z,25.00
2022-10-02T13:47:13.753Z,25.00
2022-10-02T13:49:28.520Z,24.90
2022-10-02T13:51:40.622Z,24.90
2022-10-02T13:53:59.924Z,24.80
2022-10-02T13:56:15.733Z,24.60
2022-10-02T13:58:39.641Z,24.50
2022-10-02T14:01:06.283Z,24.40
2022-10-02T14:03:24.422Z,24.20
2022-10-02T14:05:42.127Z,24.10
2022-10-02T14:08:02.749Z,24.00
2022-10-02T14:10:20.445Z,24.00
2022-10-02T14:12:29.628Z,23.90
2022-10-02T14:14:56.329Z,23.80
2022-10-02T14:17:10.594Z,23.80
2022-10-02T14:19:35.392Z,23.70
2022-10-02T14:21:48.641Z,23.60
2022-10-02T14:24:19.919Z,23.50
2022-10-02T14:26:35.894Z,23.40
2022-10-02T14:28:57.732Z,23.30
2022-10-02T14:31:41.093Z,23.30
2022-10-02T14:34:28.907Z,23.30
2022-10-02T14:36:42.033Z,23.10
2022-10-02T14:39:01.339Z,23.10
2022-10-02T14:41:22.830Z,23.00
2022-10-02T14:44:29.202Z,23.10
2022-10-02T14:46:43.747Z,22.90
2022-10-02T14:49:07.008Z,22.80
2022-10-02T14:51:35.640Z,22.70
2022-10-02T14:53:53.745Z,22.60
2022-10-02T14:56:31.922Z,22.50
2022-10-02T14:58:46.536Z,22.50
2022-10-02T15:01:16.507Z,22.50
2022-10-02T15:03:40.391Z,22.40
2022-10-02T15:06:01.613Z,22.10
2022-10-02T15:08:15.763Z,22.10
2022-10-02T15:10:23.342Z,22.00
2022-10-02T15:12:34.878Z,22.00
2022-10-02T15:14:49.011Z,21.90
2022-10-02T15:17:18.155Z,21.90
2022-10-02T15:19:28.230Z,21.80
2022-10-02T15:21:38.957Z,21.80
2022-10-02T15:23:47.942Z,21.70
2022-10-02T15:26:09.515Z,21.60
2022-10-02T15:28:36.246Z,21.60
2022-10-02T15:30:51.470Z,21.60
2022-10-02T15:33:11.514Z,21.50
2022-10-02T15:35:29.757Z,21.50
2022-10-02T15:37:43.618Z,21.40
2022-10-02T15:40:09.487Z,21.30
2022-10-02T15:42:23.960Z,21.20
2022-10-02T15:44:56.184Z,21.10
2022-10-02T15:47:09.938Z,21.10
2022-10-02T15:49:19.906Z,21.00
2022-10-02T15:51:33.274Z,20.90
2022-10-02T15:53:51.924Z,20.90
2022-10-02T15:56:06.639Z,20.70
2022-10-02T15:58:21.760Z,20.60
2022-10-02T16:00:27.450Z,20.50
2022-10-02T16:02:53.377Z,20.40
2022-10-02T16:05:16.057Z,20.40
2022-10-02T16:07:36.824Z,20.30
2022-10-02T16:09:51.152Z,20.20
2022-10-02T16:12:17.195Z,20.10
2022-10-02T16:14:29.203Z,20.10
2022-10-02T16:16:59.253Z,20.00
2022-10-02T16:19:20.137Z,19.90
2022-10-02T16:21:39.364Z,19.80
2022-10-02T16:24:12.520Z,19.80
2022-10-02T16:26:30.480Z,19.70
2022-10-02T16:29:01.545Z,19.70
2022-10-02T16:31:27.651Z,19.70
2022-10-02T16:33:45.331Z,19.60
2022-10-02T16:36:21.249Z,19.50
2022-10-02T16:38:32.514Z,19.50
2022-10-02T16:40:45.482Z,19.40
2022-10-02T16:42:55.104Z,19.30
2022-10-02T16:45:18.956Z,19.30
2022-10-02T16:47:30.568Z,19.30
2022-10-02T16:49:49.012Z,19.20
2022-10-02T16:52:03.324Z,19.20
2022-10-02T16:54:18.222Z,19.10
2022-10-02T16:56:26.488Z,19.10
2022-10-02T16:58:36.385Z,19.20
2022-10-02T17:00:54.598Z,19.10
2022-10-02T17:03:06.060Z,19.10
2022-10-02T17:05:18.986Z,19.00
2022-10-02T17:07:42.577Z,18.90
2022-10-02T17:09:51.991Z,18.80
2022-10-02T17:12:03.199Z,18.80
2022-10-02T17:14:16.547Z,18.80
2022-10-02T17:16:28.971Z,18.70
2022-10-02T17:18:39.621Z,18.70
2022-10-02T17:20:49.239Z,18.70
2022-10-02T17:23:01.763Z,18.80
2022-10-02T17:25:22.000Z,18.60
2022-10-02T17:27:42.293Z,18.50
2022-10-02T17:29:59.286Z,18.30
2022-10-02T17:32:10.279Z,18.40
2022-10-02T17:34:23.876Z,18.30
2022-10-02T17:36:41.910Z,18.20
2022-10-02T17:39:04.356Z,18.20
2022-10-02T17:41:25.829Z,18.10
2022-10-02T17:43:37.338Z,18.10
2022-10-02T17:45:49.537Z,18.10
2022-10-02T17:48:26.810Z,18.10
2022-10-02T17:50:46.544Z,18.10
2022-10-02T17:53:22.303Z,18.10
2022-10-02T17:56:04.334Z,18.10
2022-10-02T17:58:17.655Z,18.20
2022-10-02T18:00:24.870Z,18.20
2022-10-02T18:02:46.553Z,18.20
2022-10-02T18:05:10.697Z,18.30
2022-10-02T18:07:39.805Z,18.30
2022-10-02T18:09:58.904Z,18.20
2022-10-02T18:12:30.895Z,18.10
2022-10-02T18:15:06.513Z,18.10
2022-10-02T18:17:23.207Z,18.10
2022-10-02T18:19:32.781Z,17.90
2022-10-02T18:21:43.279Z,18.10
2022-10-02T18:24:23.922Z,18.00
2022-10-02T18:26:43.442Z,18.00
2022-10-02T18:29:12.871Z,18.00
2022-10-02T18:31:54.676Z,18.00
2022-10-02T18:34:28.903Z,18.00
2022-10-02T18:36:51.472Z,18.10
2022-10-02T18:39:00.522Z,18.10
2022-10-02T18:41:20.012Z,18.10
2022-10-02T18:43:50.014Z,18.00
2022-10-02T18:46:04.570Z,18.00
2022-10-02T18:48:28.855Z,17.90
2022-10-02T18:50:48.871Z,18.00
2022-10-02T18:53:20.012Z,18.00
2022-10-02T18:55:51.378Z,17.80
2022-10-02T18:58:07.615Z,17.60
2022-10-02T19:00:19.099Z,17.40
2022-10-02T19:02:36.530Z,17.40
2022-10-02T19:05:04.953Z,17.30
2022-10-02T19:07:20.557Z,17.30
2022-10-02T19:09:28.810Z,17.10
2022-10-02T19:11:36.173Z,17.20
2022-10-02T19:13:42.408Z,17.40
2022-10-02T19:15:48.858Z,17.30
2022-10-02T19:18:01.365Z,17.40
2022-10-02T19:20:41.097Z,17.20
2022-10-02T19:22:47.068Z,17.10
2022-10-02T19:24:55.736Z,17.00
2022-10-02T19:27:04.836Z,17.00
2022-10-02T19:29:25.295Z,17.00
2022-10-02T19:31:32.037Z,16.90
2022-10-02T19:33:43.566Z,16.90
2022-10-02T19:35:48.036Z,16.80
2022-10-02T19:37:55.213Z,16.80
2022-10-02T19:40:04.324Z,16.80
2022-10-02T19:42:13.247Z,16.90
2022-10-02T19:44:25.093Z,16.90
2022-10-02T19:46:35.986Z,16.90
2022-10-02T19:48:55.967Z,17.00
2022-10-02T19:51:03.028Z,17.00
2022-10-02T19:53:21.181Z,17.10
2022-10-02T19:55:29.893Z,17.10
2022-10-02T19:57:41.243Z,17.10
2022-10-02T20:00:05.538Z,17.00
2022-10-02T20:02:34.705Z,17.00
2022-10-02T20:04:39.760Z,17.00
2022-10-02T20:06:45.640Z,17.10
2022-10-02T20:08:55.013Z,17.00
2022-10-02T20:11:04.715Z,17.00
2022-10-02T20:13:19.312Z,17.00
2022-10-02T20:15:47.324Z,17.00
2022-10-02T20:17:51.428Z,16.90
2022-10-02T20:19:58.693Z,16.80
2022-10-02T20:22:08.661Z,16.80
2022-10-02T20:24:16.519Z,16.70
2022-10-02T20:26:27.733Z,16.60
2022-10-02T20:28:37.512Z,16.70
2022-10-02T20:30:43.982Z,16.70
2022-10-02T20:32:53.627Z,16.70
2022-10-02T20:35:03.646Z,16.70
2022-10-02T20:37:10.192Z,16.60
2022-10-02T20:39:17.366Z,16.60
2022-10-02T20:41:27.397Z,16.50
2022-10-02T20:43:38.346Z,16.50
2022-10-02T20:45:49.243Z,16.50
2022-10-02T20:49:06.292Z,16.50
2022-10-02T20:51:13.489Z,16.50
2022-10-02T20:53:57.554Z,16.40
2022-10-02T20:56:09.045Z,16.30
2022-10-02T20:58:47.884Z,16.30
2022-10-02T21:01:03.523Z,16.20
2022-10-02T21:03:51.222Z,16.10
2022-10-02T21:06:20.569Z,16.10
2022-10-02T21:08:40.501Z,15.90
2022-10-02T21:11:17.770Z,15.90
2022-10-02T21:13:54.391Z,15.80
2022-10-02T21:16:29.249Z,15.80
2022-10-02T21:19:06.427Z,15.90
2022-10-02T21:21:29.652Z,16.00
2022-10-02T21:24:13.827Z,16.00
2022-10-02T21:27:02.557Z,15.90
2022-10-02T21:29:37.824Z,15.80
2022-10-02T21:31:58.546Z,15.70
2022-10-02T21:34:15.252Z,15.70
2022-10-02T21:36:28.018Z,15.50
2022-10-02T21:38:55.802Z,15.50
2022-10-02T21:41:33.684Z,15.40
2022-10-02T21:44:04.767Z,15.30
2022-10-02T21:46:44.156Z,15.20
2022-10-02T21:49:20.768Z,15.20
2022-10-02T21:52:00.114Z,15.20
2022-10-02T21:54:55.266Z,15.10
2022-10-02T21:57:50.455Z,15.00
2022-10-02T22:00:13.746Z,14.90
2022-10-02T22:03:10.700Z,14.80
2022-10-02T22:05:30.473Z,14.70
2022-10-02T22:07:44.226Z,14.70
2022-10-02T22:09:56.336Z,14.60
2022-10-02T22:12:24.995Z,14.70
2022-10-02T22:14:33.911Z,14.90
2022-10-02T22:16:49.192Z,14.60
2022-10-02T22:18:58.706Z,14.60
2022-10-02T22:21:17.914Z,14.60
2022-10-02T22:23:39.125Z,14.50
2022-10-02T22:25:56.307Z,14.40
2022-10-02T22:28:15.584Z,14.40
2022-10-02T22:30:25.141Z,14.30
2022-10-02T22:33:01.001Z,14.20
2022-10-02T22:35:17.396Z,14.20
2022-10-02T22:37:40.200Z,14.30
2022-10-02T22:39:48.112Z,14.30
2022-10-02T22:41:58.706Z,14.30
2022-10-02T22:44:09.149Z,14.10
2022-10-02T22:46:41.417Z,14.20
2022-10-02T22:48:48.520Z,14.20
2022-10-02T22:50:58.145Z,14.10
2022-10-02T22:53:12.509Z,13.90
2022-10-02T22:55:22.869Z,14.00
2022-10-02T22:57:37.380Z,13.90
2022-10-02T22:59:49.808Z,14.00
2022-10-02T23:01:59.817Z,14.00
2022-10-02T23:04:07.910Z,14.00
2022-10-02T23:06:23.098Z,14.10
2022-10-02T23:08:33.106Z,14.10
2022-10-02T23:10:42.973Z,14.00
2022-10-02T23:12:56.281Z,13.90
2022-10-02T23:15:19.725Z,13.90
2022-10-02T23:17:28.938Z,14.00
2022-10-02T23:19:43.245Z,14.00
2022-10-02T23:21:51.935Z,13.90
2022-10-02T23:24:02.798Z,13.90
2022-10-02T23:26:14.688Z,13.90
2022-10-02T23:28:24.437Z,13.80
2022-10-02T23:30:32.929Z,13.60
2022-10-02T23:32:44.537Z,13.50
2022-10-02T23:34:54.461Z,13.50
2022-10-02T23:37:02.158Z,13.50
2022-10-02T23:39:13.533Z,13.50
2022-10-02T23:41:47.725Z,13.30
2022-10-02T23:44:01.934Z,13.30
2022-10-02T23:46:11.506Z,13.20
2022-10-02T23:48:16.523Z,13.10
2022-10-02T23:50:24.590Z,13.10
2022-10-02T23:52:52.190Z,13.00
2022-10-02T23:55:07.819Z,12.90
2022-10-02T23:57:39.710Z,12.90
